createdAt,value
2022-10-16T00:00:21.021Z,18.45
2022-10-16T00:05:18.925Z,18.54
2022-10-16T00:07:45.411Z,18.42
2022-10-16T00:10:11.933Z,18.16
2022-10-16T00:12:38.462Z,18.23
2022-10-16T00:15:05.553Z,18.25
2022-10-16T00:17:32.032Z,17.76
2022-10-16T00:19:58.865Z,17.87
2022-10-16T00:22:44.097Z,17.75
2022-10-16T00:25:10.594Z,18.08
2022-10-16T00:27:37.082Z,18.20
2022-10-16T00:30:04.297Z,18.09
2022-10-16T00:32:31.113Z,18.10
2022-10-16T00:34:57.689Z,18.19
2022-10-16T00:37:24.169Z,17.97
2022-10-16T00:39:50.606Z,17.80
2022-10-16T00:42:18.969Z,18.07
2022-10-16T00:44:57.887Z,18.00
2022-10-16T00:47:31.563Z,17.68
2022-10-16T00:50:10.304Z,18.18
2022-10-16T00:52:40.316Z,17.95
2022-10-16T00:55:07.527Z,18.03
2022-10-16T00:57:33.974Z,18.07
2022-10-16T01:00:00.901Z,18.00
2022-10-16T01:02:27.635Z,18.17
2022-10-16T01:04:55.310Z,18.41
2022-10-16T01:07:34.349Z,18.45
2022-10-16T01:10:28.096Z,18.24
2022-10-16T01:13:00.121Z,18.33
2022-10-16T01:15:32.607Z,18.54
2022-10-16T01:18:09.337Z,18.68
2022-10-16T01:20:39.056Z,18.47
2022-10-16T01:23:50.578Z,18.72
2022-10-16T01:26:43.183Z,18.68
2022-10-16T01:29:30.916Z,18.43
2022-10-16T01:32:02.578Z,18.36
2022-10-16T01:34:59.885Z,18.23
2022-10-16T01:37:36.066Z,17.89
2022-10-16T01:40:06.918Z,17.90
2022-10-16T01:42:38.862Z,17.84
2022-10-16T01:45:14.097Z,17.97
2022-10-16T01:47:41.604Z,18.23
2022-10-16T01:50:09.433Z,17.93
2022-10-16T01:52:40.062Z,18.07
2022-10-16T01:55:09.644Z,17.88
2022-10-16T01:57:40.796Z,18.04
2022-10-16T02:00:11.549Z,18.32
2022-10-16T02:02:40.903Z,18.47
2022-10-16T02:05:41.213Z,18.38
2022-10-16T02:08:08.037Z,17.82
2022-10-16T02:10:36.803Z,17.75
2022-10-16T02:13:34.448Z,17.78
2022-10-16T02:16:00.913Z,17.78
2022-10-16T02:18:30.186Z,17.88
2022-10-16T02:21:01.388Z,17.76
2022-10-16T02:23:38.127Z,17.86
2022-10-16T02:26:08.636Z,17.93
2022-10-16T02:28:43.040Z,17.77
2022-10-16T02:31:12.514Z,17.81
2022-10-16T02:33:42.004Z,17.83
2022-10-16T02:36:09.138Z,17.62
2022-10-16T02:38:37.299Z,17.68
2022-10-16T02:41:06.097Z,17.90
2022-10-16T02:43:34.329Z,17.87
2022-10-16T02:46:01.210Z,17.82
2022-10-16T02:48:27.697Z,17.85
2022-10-16T02:50:54.137Z,17.74
2022-10-16T02:53:20.867Z,17.65
2022-10-16T02:55:47.399Z,17.70
2022-10-16T02:58:13.873Z,17.71
2022-10-16T03:00:40.487Z,17.77
2022-10-16T03:03:07.056Z,17.77
2022-10-16T03:05:33.461Z,17.74
2022-10-16T03:08:01.589Z,17.56
2022-10-16T03:10:28.558Z,17.58
2022-10-16T03:12:55.030Z,17.58
2022-10-16T03:15:21.528Z,17.72
2022-10-16T03:17:48.075Z,17.85
2022-10-16T03:20:14.725Z,17.88
2022-10-16T03:22:41.168Z,17.90
2022-10-16T03:25:08.142Z,17.72
2022-10-16T03:27:34.569Z,17.89
2022-10-16T03:30:01.039Z,17.80
2022-10-16T03:32:29.538Z,17.57
2022-10-16T03:34:57.318Z,17.57
2022-10-16T03:37:25.019Z,17.56
2022-10-16T03:39:52.390Z,17.65
2022-10-16T03:42:18.909Z,17.80
2022-10-16T03:44:45.428Z,17.61
2022-10-16T03:47:11.898Z,17.96
2022-10-16T03:49:38.371Z,17.94
2022-10-16T03:52:04.859Z,17.97
2022-10-16T03:54:31.323Z,17.83
2022-10-16T03:56:57.785Z,17.87
2022-10-16T03:59:24.265Z,17.09
2022-10-16T04:01:50.720Z,17.11
2022-10-16T04:04:17.270Z,17.53
2022-10-16T04:06:43.740Z,17.85
2022-10-16T04:09:10.202Z,17.72
2022-10-16T04:11:36.712Z,17.69
2022-10-16T04:14:03.461Z,17.88
2022-10-16T04:16:29.933Z,18.08
2022-10-16T04:18:56.471Z,18.22
2022-10-16T04:21:23.345Z,18.11
2022-10-16T04:23:50.309Z,18.12
2022-10-16T04:26:16.831Z,17.65
2022-10-16T04:28:43.846Z,17.50
2022-10-16T04:31:10.344Z,17.43
2022-10-16T04:33:36.795Z,17.36
2022-10-16T04:36:04.478Z,17.04
2022-10-16T04:38:31.434Z,17.33
2022-10-16T04:40:57.914Z,17.60
2022-10-16T04:43:24.853Z,17.74
2022-10-16T04:45:55.611Z,17.61
2022-10-16T04:48:22.050Z,17.70
2022-10-16T04:50:52.978Z,17.78
2022-10-16T04:53:21.716Z,17.82
2022-10-16T04:55:48.307Z,18.00
2022-10-16T04:58:14.843Z,17.55
2022-10-16T05:00:41.386Z,17.53
2022-10-16T05:03:09.571Z,17.58
2022-10-16T05:05:37.330Z,18.05
2022-10-16T05:08:04.918Z,17.66
2022-10-16T05:10:31.430Z,17.57
2022-10-16T05:12:58.018Z,17.44
2022-10-16T05:15:25.918Z,17.58
2022-10-16T05:17:56.533Z,17.71
2022-10-16T05:20:23.808Z,17.63
2022-10-16T05:22:50.316Z,17.90
2022-10-16T05:25:16.857Z,18.04
2022-10-16T05:27:43.350Z,18.15
2022-10-16T05:30:12.397Z,18.48
2022-10-16T05:32:39.257Z,17.42
2022-10-16T05:35:07.606Z,17.71
2022-10-16T05:37:36.657Z,16.92
2022-10-16T05:40:05.824Z,16.58
2022-10-16T05:42:32.273Z,16.92
2022-10-16T05:44:58.742Z,17.62
2022-10-16T05:47:25.562Z,17.68
2022-10-16T05:49:52.278Z,17.67
2022-10-16T05:52:18.777Z,17.94
2022-10-16T05:54:45.294Z,17.87
2022-10-16T05:57:11.728Z,18.17
2022-10-16T05:59:38.799Z,18.57
2022-10-16T06:02:05.304Z,18.57
2022-10-16T06:04:31.792Z,18.64
2022-10-16T06:07:01.566Z,18.67
2022-10-16T06:09:28.412Z,18.39
2022-10-16T06:11:55.033Z,18.42
2022-10-16T06:14:21.529Z,18.61
2022-10-16T06:16:48.621Z,17.84
2022-10-16T06:19:16.234Z,17.48
2022-10-16T06:21:42.907Z,17.52
2022-10-16T06:24:09.490Z,17.76
2022-10-16T06:26:35.930Z,18.13
2022-10-16T06:29:02.763Z,18.11
2022-10-16T06:31:31.908Z,17.90
2022-10-16T06:33:58.897Z,18.27
2022-10-16T06:36:26.476Z,18.16
2022-10-16T06:38:53.519Z,18.23
2022-10-16T06:41:22.676Z,18.56
2022-10-16T06:43:49.606Z,18.46
2022-10-16T06:46:19.200Z,18.05
2022-10-16T06:48:46.226Z,18.27
2022-10-16T06:51:15.564Z,18.68
2022-10-16T06:54:04.013Z,18.10
2022-10-16T06:56:32.689Z,18.73
2022-10-16T06:58:59.983Z,18.88
2022-10-16T07:01:27.183Z,18.99
2022-10-16T07:03:54.197Z,18.92
2022-10-16T07:06:24.147Z,18.99
2022-10-16T07:08:51.045Z,19.14
2022-10-16T07:11:21.384Z,19.42
2022-10-16T07:13:52.703Z,19.26
2022-10-16T07:16:24.574Z,19.02
2022-10-16T07:18:55.223Z,19.51
2022-10-16T07:21:23.664Z,19.41
2022-10-16T07:23:55.122Z,19.39
2022-10-16T07:26:22.655Z,19.54
2022-10-16T07:28:49.880Z,19.99
2022-10-16T07:31:17.518Z,19.55
2022-10-16T07:33:45.961Z,19.52
2022-10-16T07:36:16.228Z,19.41
2022-10-16T07:38:43.691Z,19.35
2022-10-16T07:41:15.588Z,19.39
2022-10-16T07:43:49.969Z,19.33
2022-10-16T07:46:17.399Z,19.59
2022-10-16T07:48:46.891Z,19.40
2022-10-16T07:51:16.298Z,19.31
2022-10-16T07:53:43.113Z,19.28
2022-10-16T07:56:09.957Z,19.48
2022-10-16T07:58:38.090Z,19.34
2022-10-16T08:01:10.574Z,19.43
2022-10-16T08:03:37.487Z,19.71
2022-10-16T08:06:05.202Z,19.45
2022-10-16T08:08:31.985Z,19.81
2022-10-16T08:10:58.878Z,20.11
2022-10-16T08:13:25.504Z,20.22
2022-10-16T08:15:52.088Z,19.80
2022-10-16T08:18:18.642Z,19.80
2022-10-16T08:20:45.150Z,19.82
2022-10-16T08:23:14.016Z,19.26
2022-10-16T08:25:41.826Z,19.35
2022-10-16T08:28:11.112Z,19.29
2022-10-16T08:30:38.065Z,19.40
2022-10-16T08:33:04.920Z,19.58
2022-10-16T08:35:31.440Z,19.31
2022-10-16T08:37:57.927Z,19.45
2022-10-16T08:40:27.387Z,19.18
2022-10-16T08:43:13.221Z,19.28
2022-10-16T08:46:08.790Z,19.34
2022-10-16T08:48:52.387Z,18.79
2022-10-16T08:51:27.977Z,19.23
2022-10-16T08:53:57.841Z,19.51
2022-10-16T08:56:25.696Z,19.36
2022-10-16T08:58:56.629Z,19.23
2022-10-16T09:01:40.230Z,19.33
2022-10-16T09:04:37.554Z,19.46
2022-10-16T09:07:22.481Z,19.72
2022-10-16T09:09:51.983Z,19.68
2022-10-16T09:12:32.898Z,19.66
2022-10-16T09:15:08.582Z,19.09
2022-10-16T09:18:00.419Z,18.48
2022-10-16T09:20:48.629Z,18.83
2022-10-16T09:23:23.073Z,18.89
2022-10-16T09:25:50.793Z,18.69
2022-10-16T09:28:19.297Z,18.77
2022-10-16T09:30:46.606Z,18.82
2022-10-16T09:33:15.327Z,19.16
2022-10-16T09:35:47.342Z,19.71
2022-10-16T09:38:29.746Z,19.80
2022-10-16T09:41:02.459Z,19.52
2022-10-16T09:43:32.357Z,19.07
2022-10-16T09:46:05.311Z,19.08
2022-10-16T09:48:44.111Z,18.88
2022-10-16T09:51:22.211Z,19.53
2022-10-16T09:53:49.408Z,19.24
2022-10-16T09:56:27.897Z,19.11
2022-10-16T09:58:58.313Z,19.56
2022-10-16T10:01:31.819Z,18.80
2022-10-16T10:04:03.652Z,19.67
2022-10-16T10:06:41.497Z,19.59
2022-10-16T10:09:19.990Z,19.88
2022-10-16T10:11:51.533Z,19.82
2022-10-16T10:14:20.425Z,19.42
2022-10-16T10:16:47.505Z,19.91
2022-10-16T10:19:22.490Z,20.24
2022-10-16T10:21:51.151Z,19.89
2022-10-16T10:24:19.566Z,20.52
2022-10-16T10:26:52.942Z,21.20
2022-10-16T10:29:33.906Z,20.82
2022-10-16T10:32:12.861Z,21.33
2022-10-16T10:34:55.896Z,20.49
2022-10-16T10:37:53.463Z,21.05
2022-10-16T10:40:36.586Z,21.16
2022-10-16T10:43:15.000Z,21.39
2022-10-16T10:45:48.006Z,21.98
2022-10-16T10:48:25.345Z,21.58
2022-10-16T10:51:02.272Z,21.48
2022-10-16T10:53:40.952Z,21.21
2022-10-16T10:56:29.079Z,21.48
2022-10-16T10:59:02.865Z,21.07
2022-10-16T11:01:46.931Z,21.91
2022-10-16T11:04:33.881Z,23.46
2022-10-16T11:07:04.765Z,24.35
2022-10-16T11:09:39.277Z,25.25
2022-10-16T11:12:19.830Z,26.77
2022-10-16T11:15:01.333Z,27.00
2022-10-16T11:17:36.232Z,28.56
2022-10-16T11:20:20.795Z,27.90
2022-10-16T11:23:30.597Z,26.92
2022-10-16T11:26:01.595Z,27.82
2022-10-16T11:28:31.740Z,27.97
2022-10-16T11:31:04.728Z,27.73
2022-10-16T11:33:38.557Z,26.48
2022-10-16T11:36:13.179Z,26.53
2022-10-16T11:38:59.659Z,27.42
2022-10-16T11:41:33.596Z,25.77
2022-10-16T11:44:28.227Z,25.58
2022-10-16T11:47:39.922Z,25.08
2022-10-16T11:50:33.078Z,24.23
2022-10-16T11:53:19.529Z,23.13
2022-10-16T11:55:47.332Z,23.73
2022-10-16T11:58:42.471Z,23.85
2022-10-16T12:01:22.329Z,23.42
2022-10-16T12:04:15.177Z,23.15
2022-10-16T12:07:04.862Z,22.86
2022-10-16T12:09:33.795Z,25.53
2022-10-16T12:12:00.447Z,25.43
2022-10-16T12:14:33.193Z,26.92
2022-10-16T12:17:03.015Z,26.28
2022-10-16T12:19:31.543Z,26.38
2022-10-16T12:22:01.285Z,25.27
2022-10-16T12:24:38.764Z,25.39
2022-10-16T12:27:31.764Z,23.51
2022-10-16T12:30:01.501Z,24.34
2022-10-16T12:32:53.409Z,26.23
2022-10-16T12:35:27.289Z,25.01
2022-10-16T12:37:54.444Z,25.51
2022-10-16T12:40:30.706Z,25.96
2022-10-16T12:42:57.817Z,26.67
2022-10-16T12:45:33.275Z,26.06
2022-10-16T12:48:06.052Z,25.95
2022-10-16T12:50:38.056Z,26.35
2022-10-16T12:53:19.000Z,25.85
2022-10-16T12:55:59.199Z,25.33
2022-10-16T12:59:09.090Z,24.56
2022-10-16T13:02:00.551Z,24.09
2022-10-16T13:04:59.607Z,24.04
2022-10-16T13:07:32.085Z,23.52
2022-10-16T13:10:06.493Z,23.42
2022-10-16T13:12:57.908Z,23.22
2022-10-16T13:15:24.437Z,22.32
2022-10-16T13:18:13.711Z,23.09
2022-10-16T13:21:09.319Z,23.01
2022-10-16T13:23:57.973Z,22.69
2022-10-16T13:26:30.403Z,23.08
2022-10-16T13:29:01.824Z,23.24
2022-10-16T13:31:29.773Z,23.35
2022-10-16T13:33:59.989Z,23.16
2022-10-16T13:36:35.009Z,23.45
2022-10-16T13:39:11.659Z,23.48
2022-10-16T13:41:38.623Z,23.61
2022-10-16T13:44:06.311Z,23.71
2022-10-16T13:46:35.288Z,23.72
2022-10-16T13:49:12.370Z,24.32
2022-10-16T13:51:39.128Z,24.27
2022-10-16T13:54:05.662Z,23.91
2022-10-16T13:56:33.713Z,23.59
2022-10-16T13:59:02.580Z,23.95
2022-10-16T14:01:41.320Z,23.19
2022-10-16T14:04:12.951Z,22.39
2022-10-16T14:06:45.286Z,22.63
2022-10-16T14:09:27.557Z,22.35
2022-10-16T14:12:00.365Z,22.88
2022-10-16T14:14:40.717Z,23.30
2022-10-16T14:17:07.407Z,22.66
2022-10-16T14:19:33.962Z,22.31
2022-10-16T14:22:02.886Z,22.07
2022-10-16T14:24:34.923Z,22.22
2022-10-16T14:27:02.244Z,21.74
2022-10-16T14:29:32.399Z,21.96
2022-10-16T14:32:07.080Z,22.32
2022-10-16T14:34:36.201Z,22.44
2022-10-16T14:37:27.653Z,21.85
2022-10-16T14:39:56.093Z,22.37
2022-10-16T14:42:25.734Z,22.91
2022-10-16T14:44:54.544Z,23.03
2022-10-16T14:47:26.357Z,23.15
2022-10-16T14:49:59.900Z,23.28
2022-10-16T14:52:26.687Z,23.06
2022-10-16T14:54:57.370Z,22.40
2022-10-16T14:57:28.223Z,23.06
2022-10-16T14:59:55.136Z,22.73
2022-10-16T15:02:29.088Z,22.39
2022-10-16T15:04:56.268Z,22.54
2022-10-16T15:07:23.693Z,22.84
2022-10-16T15:09:50.314Z,22.39
2022-10-16T15:12:17.772Z,22.51
2022-10-16T15:14:44.457Z,22.72
2022-10-16T15:17:12.000Z,22.43
2022-10-16T15:19:38.808Z,23.04
2022-10-16T15:22:05.346Z,22.95
2022-10-16T15:24:31.959Z,22.76
2022-10-16T15:26:58.453Z,22.70
2022-10-16T15:29:24.938Z,23.00
2022-10-16T15:31:51.527Z,22.63
2022-10-16T15:34:20.001Z,21.97
2022-10-16T15:36:46.597Z,22.32
2022-10-16T15:39:16.226Z,22.50
2022-10-16T15:41:43.769Z,22.48
2022-10-16T15:44:10.425Z,22.70
2022-10-16T15:46:38.117Z,22.55
2022-10-16T15:49:05.269Z,22.12
2022-10-16T15:51:33.992Z,22.25
2022-10-16T15:54:02.668Z,22.29
2022-10-16T15:56:29.535Z,22.32
2022-10-16T15:58:56.192Z,22.46
2022-10-16T16:01:22.919Z,21.77
2022-10-16T16:03:55.179Z,22.30
2022-10-16T16:06:24.632Z,22.04
2022-10-16T16:08:51.998Z,21.78
2022-10-16T16:11:21.400Z,22.04
2022-10-16T16:13:47.886Z,21.64
2022-10-16T16:16:17.176Z,21.98
2022-10-16T16:18:44.306Z,21.51
2022-10-16T16:21:12.650Z,21.46
2022-10-16T16:23:39.483Z,21.52
2022-10-16T16:26:26.833Z,21.60
2022-10-16T16:28:54.947Z,21.01
2022-10-16T16:31:24.854Z,21.32
2022-10-16T16:33:52.257Z,21.71
2022-10-16T16:36:19.244Z,21.56
2022-10-16T16:38:47.074Z,21.35
2022-10-16T16:41:14.357Z,21.46
2022-10-16T16:43:40.926Z,21.17
2022-10-16T16:46:07.423Z,21.30
2022-10-16T16:48:34.371Z,21.22
2022-10-16T16:51:09.194Z,21.11
2022-10-16T16:53:36.337Z,21.21
2022-10-16T16:56:05.148Z,21.15
2022-10-16T16:58:32.688Z,21.03
2022-10-16T17:01:18.932Z,21.25
2022-10-16T17:03:47.205Z,21.32
2022-10-16T17:06:20.350Z,21.31
2022-10-16T17:08:48.054Z,21.31
2022-10-16T17:11:16.725Z,21.51
2022-10-16T17:13:43.274Z,21.45
2022-10-16T17:16:10.436Z,21.27
2022-10-16T17:18:37.197Z,21.24
2022-10-16T17:21:07.319Z,21.29
2022-10-16T17:23:35.231Z,21.34
2022-10-16T17:26:08.999Z,21.27
2022-10-16T17:28:35.575Z,21.29
2022-10-16T17:31:16.983Z,21.33
2022-10-16T17:33:44.775Z,21.20
2022-10-16T17:36:14.439Z,21.03
2022-10-16T17:38:42.521Z,20.77
2022-10-16T17:41:23.797Z,20.99
2022-10-16T17:43:51.324Z,20.94
2022-10-16T17:46:19.607Z,20.96
2022-10-16T17:48:48.597Z,20.69
2022-10-16T17:51:20.606Z,20.62
2022-10-16T17:53:56.814Z,20.63
2022-10-16T17:56:24.641Z,20.57
2022-10-16T17:58:53.325Z,20.16
2022-10-16T18:01:29.810Z,20.14
2022-10-16T18:04:04.581Z,19.99
2022-10-16T18:06:32.264Z,20.01
2022-10-16T18:09:00.203Z,20.03
2022-10-16T18:11:27.958Z,19.92
2022-10-16T18:13:56.558Z,20.06
2022-10-16T18:16:23.750Z,19.66
2022-10-16T18:18:50.644Z,19.63
2022-10-16T18:21:19.610Z,19.27
2022-10-16T18:23:50.944Z,19.58
2022-10-16T18:26:20.370Z,19.35
2022-10-16T18:28:47.338Z,19.51
2022-10-16T18:31:16.319Z,19.55
2022-10-16T18:33:48.512Z,19.24
2022-10-16T18:36:16.946Z,18.99
2022-10-16T18:38:43.629Z,19.00
2022-10-16T18:41:11.095Z,19.02
2022-10-16T18:43:38.932Z,19.11
2022-10-16T18:46:19.908Z,19.10
2022-10-16T18:48:47.473Z,19.14
2022-10-16T18:51:18.322Z,18.95
2022-10-16T18:53:47.443Z,18.88
2022-10-16T18:56:15.051Z,18.81
2022-10-16T18:58:43.518Z,18.74
2022-10-16T19:01:16.504Z,18.71
2022-10-16T19:03:43.788Z,18.68
2022-10-16T19:06:12.750Z,18.65
2022-10-16T19:08:40.207Z,18.68
2022-10-16T19:11:12.156Z,18.70
2022-10-16T19:13:39.070Z,18.88
2022-10-16T19:16:26.775Z,18.60
2022-10-16T19:18:55.324Z,18.61
2022-10-16T19:21:22.450Z,18.11
2022-10-16T19:23:57.128Z,18.53
2022-10-16T19:26:25.200Z,18.57
2022-10-16T19:28:53.574Z,18.69
2022-10-16T19:31:22.757Z,18.54
2022-10-16T19:33:54.376Z,18.38
2022-10-16T19:36:26.121Z,18.29
2022-10-16T19:38:55.494Z,18.15
2022-10-16T19:41:23.786Z,18.38
2022-10-16T19:43:51.161Z,17.95
2022-10-16T19:46:19.731Z,17.77
2022-10-16T19:48:48.226Z,17.76
2022-10-16T19:51:18.324Z,17.99
2022-10-16T19:53:46.758Z,18.00
2022-10-16T19:56:18.185Z,17.95
2022-10-16T19:58:45.896Z,17.98
2022-10-16T20:01:15.276Z,17.89
2022-10-16T20:03:46.184Z,17.64
2022-10-16T20:06:13.586Z,17.79
2022-10-16T20:08:41.909Z,18.26
2022-10-16T20:11:27.353Z,18.28
2022-10-16T20:13:54.281Z,18.46
2022-10-16T20:16:22.193Z,18.40
2022-10-16T20:18:50.325Z,18.30
2022-10-16T20:21:20.391Z,18.35
2022-10-16T20:23:48.896Z,18.37
2022-10-16T20:26:15.873Z,18.82
2022-10-16T20:28:43.279Z,18.50
2022-10-16T20:31:31.207Z,18.04
2022-10-16T20:34:01.168Z,18.05
2022-10-16T20:36:30.471Z,18.04
2022-10-16T20:38:57.465Z,17.90
2022-10-16T20:41:24.490Z,17.94
2022-10-16T20:43:52.272Z,17.89
2022-10-16T20:46:26.502Z,17.97
2022-10-16T20:48:54.333Z,17.81
2022-10-16T20:51:25.515Z,17.82
2022-10-16T20:53:54.967Z,18.04
2022-10-16T20:56:21.674Z,18.16
2022-10-16T20:58:48.459Z,18.27
2022-10-16T21:01:26.421Z,17.76
2022-10-16T21:03:58.702Z,17.99
2022-10-16T21:06:26.237Z,18.10
2022-10-16T21:08:53.275Z,18.08
2022-10-16T21:11:21.151Z,17.78
2022-10-16T21:13:48.101Z,17.71
2022-10-16T21:16:15.599Z,17.71
2022-10-16T21:18:45.593Z,17.63
2022-10-16T21:21:30.280Z,17.35
2022-10-16T21:23:58.005Z,17.58
2022-10-16T21:26:28.658Z,17.55
2022-10-16T21:29:00.774Z,17.45
2022-10-16T21:31:27.846Z,17.59
2022-10-16T21:33:55.328Z,17.62
2022-10-16T21:36:33.512Z,17.00
2022-10-16T21:39:12.519Z,17.11
2022-10-16T21:41:39.938Z,17.41
2022-10-16T21:44:07.293Z,17.34
2022-10-16T21:46:35.912Z,17.30
2022-10-16T21:49:08.233Z,17.53
2022-10-16T21:51:40.138Z,17.60
2022-10-16T21:54:09.521Z,17.49
2022-10-16T21:56:36.054Z,17.67
2022-10-16T21:59:02.703Z,17.78
2022-10-16T22:01:30.743Z,17.50
2022-10-16T22:03:58.072Z,16.88
2022-10-16T22:06:27.633Z,17.41
2022-10-16T22:08:57.381Z,17.41
2022-10-16T22:11:27.846Z,17.73
2022-10-16T22:13:56.720Z,17.43
2022-10-16T22:16:25.912Z,17.45
2022-10-16T22:18:54.818Z,17.43
2022-10-16T22:21:21.712Z,17.48
2022-10-16T22:23:48.384Z,17.20
2022-10-16T22:26:15.226Z,17.31
2022-10-16T22:28:42.173Z,17.40
2022-10-16T22:31:11.299Z,17.29
2022-10-16T22:33:38.600Z,17.19
2022-10-16T22:36:06.789Z,17.32
2022-10-16T22:38:34.596Z,17.26
2022-10-16T22:41:06.306Z,17.25
2022-10-16T22:43:36.888Z,17.06
2022-10-16T22:46:05.327Z,16.94
2022-10-16T22:48:31.836Z,17.01
2022-10-16T22:50:58.368Z,16.92
2022-10-16T22:53:25.201Z,16.79
2022-10-16T22:55:51.846Z,16.86
2022-10-16T22:58:18.480Z,16.80
2022-10-16T23:00:45.011Z,16.98
2022-10-16T23:03:12.016Z,17.22
2022-10-16T23:05:42.070Z,17.13
2022-10-16T23:08:09.787Z,17.35
2022-10-16T23:10:40.896Z,17.34
2022-10-16T23:13:08.837Z,17.62
2022-10-16T23:15:39.473Z,17.39
2022-10-16T23:18:06.318Z,17.09
2022-10-16T23:20:32.872Z,17.62
2022-10-16T23:22:59.388Z,17.31
2022-10-16T23:25:25.907Z,17.22
2022-10-16T23:27:55.541Z,16.94
2022-10-16T23:30:22.055Z,17.08
2022-10-16T23:32:48.735Z,16.64
2022-10-16T23:35:15.449Z,16.92
2022-10-16T23:37:41.881Z,17.05
2022-10-16T23:40:08.745Z,17.00
2022-10-16T23:42:35.212Z,16.82
2022-10-16T23:45:01.789Z,16.68
2022-10-16T23:47:28.699Z,16.87
2022-10-16T23:49:55.384Z,16.51
2022-10-16T23:52:21.858Z,16.26
2022-10-16T23:54:48.317Z,16.15
2022-10-16T23:57:14.805Z,16.74
2022-10-16T23:59:41.315Z,16.72
